Time;durP1;ratioP1;P1;durP2;ratioP2;P2;SDS_P1;SDS_P2;PMS_P1;PMS_P2;Temp;Humidity;BMP_temperature;BMP_pressure;BME280_temperature;BME280_humidity;BME280_pressure;Samples;Min_cycle;Max_cycle;Signal;HPM_P1;HPM_P2
2022/08/21 00:01:13;;;;;;;6.03;2.60;;;;;;;14.60;80.33;98818.34;4975032;28;20293;-53
2022/08/21 00:03:41;;;;;;;6.33;2.50;;;;;;;14.59;80.73;98808.00;4962509;28;20244;-50
2022/08/21 00:06:08;;;;;;;6.43;2.67;;;;;;;14.53;80.40;98812.13;4970767;28;20249;-52
2022/08/21 00:08:34;;;;;;;6.17;2.50;;;;;;;14.58;80.67;98815.06;4972227;28;20311;-51
2022/08/21 00:11:01;;;;;;;6.13;2.60;;;;;;;14.55;82.11;98806.69;4976121;28;20225;-51
2022/08/21 00:13:28;;;;;;;5.33;2.67;;;;;;;14.54;81.52;98800.66;4975478;28;20606;-52
2022/08/21 00:15:57;;;;;;;7.20;2.90;;;;;;;14.49;81.32;98805.59;4974368;28;20242;-50
2022/08/21 00:18:24;;;;;;;8.17;2.53;;;;;;;14.49;81.76;98807.38;4978760;28;20243;-53
2022/08/21 00:20:51;;;;;;;8.13;2.77;;;;;;;14.42;81.07;98808.06;4976668;28;20245;-51
2022/08/21 00:23:18;;;;;;;8.17;2.70;;;;;;;14.44;82.29;98800.84;4975687;28;20703;-51
2022/08/21 00:25:46;;;;;;;5.07;2.97;;;;;;;14.43;82.62;98788.69;4975671;28;20245;-52
2022/08/21 00:28:13;;;;;;;6.57;2.73;;;;;;;14.44;82.27;98797.41;4967109;28;20287;-53
2022/08/21 00:30:41;;;;;;;9.23;3.27;;;;;;;14.46;81.48;98796.22;4969516;28;20227;-51
2022/08/21 00:33:10;;;;;;;6.47;3.07;;;;;;;14.48;81.60;98796.06;4966240;28;20232;-52
2022/08/21 00:35:40;;;;;;;6.90;3.20;;;;;;;14.43;80.91;98798.41;4963473;28;20236;-52
2022/08/21 00:38:08;;;;;;;5.13;2.57;;;;;;;14.38;81.54;98792.84;4974404;28;20231;-53
2022/08/21 00:40:39;;;;;;;8.00;3.00;;;;;;;14.35;81.36;98787.94;4977360;28;20248;-50
2022/08/21 00:43:09;;;;;;;5.43;2.90;;;;;;;14.25;81.44;98791.56;4976587;28;20240;-51
2022/08/21 00:45:36;;;;;;;6.20;2.77;;;;;;;14.22;81.98;98783.22;4974220;28;20226;-51
2022/08/21 00:48:03;;;;;;;6.55;2.90;;;;;;;14.30;81.84;98780.56;4972906;28;20440;-52
2022/08/21 00:50:35;;;;;;;8.83;3.23;;;;;;;14.28;81.57;98778.09;4976049;28;20234;-50
2022/08/21 00:53:05;;;;;;;9.90;2.90;;;;;;;14.22;81.61;98777.97;4972872;28;20240;-51
2022/08/21 00:55:33;;;;;;;4.17;2.70;;;;;;;14.25;82.49;98780.28;4983492;28;20237;-50
2022/08/21 00:58:02;;;;;;;6.03;2.60;;;;;;;14.20;82.94;98786.00;4971245;28;20309;-51
2022/08/21 01:00:35;;;;;;;7.00;2.73;;;;;;;14.22;82.91;98780.59;4972142;28;20256;-51
2022/08/21 01:03:06;;;;;;;7.27;2.97;;;;;;;14.15;82.46;98783.91;4973539;28;20694;-51
2022/08/21 01:05:34;;;;;;;8.50;3.13;;;;;;;14.13;82.46;98783.25;4986475;28;20231;-51
2022/08/21 01:08:01;;;;;;;9.47;2.90;;;;;;;14.05;82.13;98780.66;4971202;28;20323;-51
2022/08/21 01:10:28;;;;;;;5.67;2.90;;;;;;;14.03;82.79;98778.19;4969314;28;20234;-51
2022/08/21 01:12:58;;;;;;;7.23;2.83;;;;;;;14.00;82.11;98778.53;4962673;28;20236;-50
2022/08/21 01:15:30;;;;;;;6.07;3.43;;;;;;;13.99;82.43;98782.16;4984637;28;20704;-51
2022/08/21 01:17:57;;;;;;;6.60;2.90;;;;;;;14.00;82.87;98783.78;4969034;28;20244;-51
2022/08/21 01:20:25;;;;;;;7.07;3.10;;;;;;;13.98;82.86;98777.09;4971878;28;20240;-51
2022/08/21 01:22:53;;;;;;;8.80;2.80;;;;;;;13.90;82.29;98775.28;4973572;28;20239;-51
2022/08/21 01:25:20;;;;;;;6.90;2.83;;;;;;;13.94;83.94;98773.16;4972405;28;20285;-53
2022/08/21 01:27:47;;;;;;;7.47;2.80;;;;;;;13.89;83.43;98771.03;4964040;28;20715;-51
2022/08/21 01:30:17;;;;;;;6.17;2.87;;;;;;;13.86;83.65;98772.19;4974329;28;20236;-51
2022/08/21 01:32:44;;;;;;;5.90;3.10;;;;;;;13.82;83.73;98773.50;4963718;28;20228;-50
2022/08/21 01:35:12;;;;;;;7.37;3.17;;;;;;;13.85;83.18;98777.59;4970082;28;20235;-51
2022/08/21 01:37:39;;;;;;;8.67;3.50;;;;;;;13.91;82.97;98773.50;4964055;28;20233;-51
2022/08/21 01:40:09;;;;;;;9.70;3.03;;;;;;;13.90;83.28;98772.66;4975398;28;20254;-50
2022/08/21 01:42:37;;;;;;;7.07;3.10;;;;;;;13.99;82.90;98769.03;4978085;28;20250;-52
2022/08/21 01:45:06;;;;;;;8.90;3.27;;;;;;;13.91;83.18;98755.94;4981763;28;20630;-51
2022/08/21 01:47:33;;;;;;;6.57;2.80;;;;;;;13.94;82.69;98762.66;4974468;28;20248;-51
2022/08/21 01:50:00;;;;;;;5.77;2.80;;;;;;;13.89;83.34;98765.78;4968793;28;20237;-51
2022/08/21 01:52:27;;;;;;;7.13;3.00;;;;;;;13.84;83.69;98768.91;4968134;28;20586;-52
2022/08/21 01:54:54;;;;;;;9.30;3.23;;;;;;;13.84;83.61;98762.84;4966887;28;20236;-52
2022/08/21 01:57:22;;;;;;;7.57;2.90;;;;;;;13.79;83.98;98759.91;4974333;28;20246;-50
2022/08/21 01:59:49;;;;;;;7.30;2.97;;;;;;;13.75;84.10;98762.06;4962722;28;20258;-50
2022/08/21 02:02:15;;;;;;;7.17;3.50;;;;;;;13.70;84.30;98757.31;4976134;28;20269;-51
2022/08/21 02:04:42;;;;;;;8.23;3.00;;;;;;;13.64;84.32;98754.53;4975995;28;20234;-51
2022/08/21 02:07:09;;;;;;;10.73;3.40;;;;;;;13.62;84.12;98754.72;4960763;28;20237;-53
2022/08/21 02:09:36;;;;;;;10.60;3.23;;;;;;;13.56;84.80;98753.56;4966431;28;20755;-53
2022/08/21 02:12:03;;;;;;;6.73;3.10;;;;;;;13.54;85.28;98749.50;4976014;28;20239;-51
2022/08/21 02:14:31;;;;;;;8.53;2.90;;;;;;;13.58;84.86;98751.59;4972259;28;20251;-51
2022/08/21 02:16:58;;;;;;;9.70;3.30;;;;;;;13.54;84.73;98746.88;4974969;28;20228;-51
2022/08/21 02:19:24;;;;;;;7.30;3.23;;;;;;;13.52;84.71;98741.78;4975440;28;20219;-51
2022/08/21 02:21:51;;;;;;;10.13;3.13;;;;;;;13.47;84.69;98744.06;4971535;28;20256;-51
2022/08/21 02:24:18;;;;;;;8.53;3.63;;;;;;;13.55;85.09;98740.63;4978928;28;20704;-54
2022/08/21 02:26:45;;;;;;;7.77;3.37;;;;;;;13.51;85.58;98741.97;4964736;28;20243;-51
2022/08/21 02:29:12;;;;;;;9.43;3.60;;;;;;;13.41;85.77;98748.19;4977996;28;20238;-50
2022/08/21 02:31:40;;;;;;;11.17;3.70;;;;;;;13.37;85.33;98746.84;4975636;28;20739;-52
2022/08/21 02:34:08;;;;;;;7.87;3.30;;;;;;;13.28;85.30;98740.78;4966056;28;20242;-51
2022/08/21 02:36:35;;;;;;;4.73;3.50;;;;;;;13.23;85.42;98740.50;4964381;28;20750;-50
2022/08/21 02:39:02;;;;;;;9.47;4.73;;;;;;;13.24;86.19;98736.88;4974256;28;20293;-51
2022/08/21 02:41:29;;;;;;;7.77;3.57;;;;;;;13.25;86.57;98735.06;4973069;28;20562;-50
2022/08/21 02:43:55;;;;;;;6.57;3.43;;;;;;;13.24;85.99;98738.66;4976085;28;20238;-51
2022/08/21 02:46:23;;;;;;;5.73;3.17;;;;;;;13.20;85.88;98742.59;4974414;28;20232;-51
2022/08/21 02:48:51;;;;;;;9.40;3.83;;;;;;;13.22;86.18;98733.63;4961719;28;20241;-50
2022/08/21 02:51:22;;;;;;;7.87;3.33;;;;;;;13.22;86.43;98744.09;4978315;28;20308;-51
2022/08/21 02:53:49;;;;;;;6.37;3.53;;;;;;;13.17;86.45;98735.91;4966660;28;20229;-51
2022/08/21 02:56:18;;;;;;;8.63;3.23;;;;;;;13.21;86.17;98736.38;4961464;28;20241;-50
2022/08/21 02:58:49;;;;;;;8.70;3.40;;;;;;;13.13;86.48;98740.66;4973110;28;20274;-52
2022/08/21 03:01:16;;;;;;;6.80;3.50;;;;;;;13.10;86.99;98735.72;4990770;28;20226;-52
2022/08/21 03:03:46;;;;;;;4.87;3.40;;;;;;;13.08;87.36;98739.50;4972304;28;20225;-52
2022/08/21 03:06:15;;;;;;;7.40;3.53;;;;;;;13.11;86.93;98741.81;4979120;28;20670;-50
2022/08/21 03:08:44;;;;;;;9.40;4.23;;;;;;;13.11;87.25;98749.66;4971350;28;20227;-52
2022/08/21 03:11:13;;;;;;;8.00;3.77;;;;;;;13.06;87.09;98738.84;4965738;28;20234;-51
2022/08/21 03:13:39;;;;;;;8.77;2.97;;;;;;;12.98;87.16;98737.03;4983249;28;20239;-51
2022/08/21 03:16:08;;;;;;;10.43;3.63;;;;;;;12.94;87.57;98738.34;4967551;28;20235;-53
2022/08/21 03:18:35;;;;;;;12.40;3.53;;;;;;;12.91;87.42;98741.28;4967956;28;20240;-53
2022/08/21 03:21:02;;;;;;;8.53;3.40;;;;;;;12.94;87.68;98739.19;4972849;28;20321;-52
2022/08/21 03:23:30;;;;;;;8.00;3.40;;;;;;;12.93;87.13;98736.72;4974154;28;20844;-52
2022/08/21 03:25:57;;;;;;;9.47;3.50;;;;;;;12.89;87.28;98735.41;4975193;28;20282;-50
2022/08/21 03:28:25;;;;;;;7.70;3.67;;;;;;;12.83;87.89;98731.63;4978196;28;20240;-51
2022/08/21 03:30:53;;;;;;;8.33;3.50;;;;;;;12.82;88.08;98732.63;4970906;28;20599;-50
2022/08/21 03:33:21;;;;;;;5.17;3.60;;;;;;;12.92;88.76;98732.44;4977723;28;20637;-51
2022/08/21 03:35:54;;;;;;;7.03;2.97;;;;;;;12.91;88.88;98739.50;4973179;28;20249;-51
2022/08/21 03:38:21;;;;;;;7.90;3.50;;;;;;;12.85;88.99;98740.97;4962514;28;20642;-52
2022/08/21 03:40:49;;;;;;;6.33;3.13;;;;;;;12.83;89.10;98734.25;4975176;28;20241;-51
2022/08/21 03:43:16;;;;;;;8.17;3.90;;;;;;;12.83;88.45;98735.06;4975923;28;20243;-50
2022/08/21 03:45:43;;;;;;;7.63;3.40;;;;;;;12.83;88.68;98737.69;4977780;28;20698;-51
2022/08/21 03:48:09;;;;;;;6.37;3.17;;;;;;;12.75;88.83;98735.06;4977078;28;20805;-50
2022/08/21 03:50:39;;;;;;;5.73;3.33;;;;;;;12.70;89.78;98734.75;4972744;28;20262;-51
2022/08/21 03:53:06;;;;;;;8.50;3.60;;;;;;;12.72;89.67;98738.00;4966297;28;20235;-52
2022/08/21 03:55:33;;;;;;;8.17;4.33;;;;;;;12.66;89.88;98734.25;4978530;28;20248;-53
2022/08/21 03:58:02;;;;;;;11.00;4.00;;;;;;;12.66;89.67;98738.66;4978197;28;20237;-50
2022/08/21 04:00:28;;;;;;;9.73;3.80;;;;;;;12.63;90.05;98741.63;4978151;28;20236;-51
2022/08/21 04:02:55;;;;;;;8.57;3.97;;;;;;;12.63;90.26;98739.78;4976987;28;20358;-50
2022/08/21 04:05:27;;;;;;;7.50;3.70;;;;;;;12.61;90.41;98735.72;4969114;28;20345;-52
2022/08/21 04:07:56;;;;;;;12.10;3.23;;;;;;;12.59;89.20;98735.06;4976079;28;20237;-51
2022/08/21 04:10:23;;;;;;;8.53;3.80;;;;;;;12.56;90.02;98738.81;4963539;28;20242;-50
2022/08/21 04:12:50;;;;;;;10.90;3.60;;;;;;;12.57;90.22;98737.00;4972104;28;20245;-52
2022/08/21 04:15:18;;;;;;;5.37;3.00;;;;;;;12.60;90.07;98744.56;4967715;28;20331;-52
2022/08/21 04:17:45;;;;;;;7.83;3.23;;;;;;;12.59;90.35;98748.94;4977235;28;20237;-51
2022/08/21 04:20:12;;;;;;;7.53;3.40;;;;;;;12.57;90.20;98750.09;4962199;28;20234;-52
2022/08/21 04:22:39;;;;;;;8.87;3.87;;;;;;;12.55;90.43;98755.50;4973991;28;20230;-51
2022/08/21 04:25:07;;;;;;;9.37;3.80;;;;;;;12.56;90.88;98757.13;4975153;28;20257;-51
2022/08/21 04:27:33;;;;;;;10.80;3.27;;;;;;;12.53;91.74;98760.91;4978297;28;20238;-51
2022/08/21 04:30:00;;;;;;;6.43;3.50;;;;;;;12.58;91.31;98762.22;4981165;28;20225;-50
2022/08/21 04:32:29;;;;;;;8.13;3.87;;;;;;;12.53;91.36;98760.06;4973506;28;20265;-52
2022/08/21 04:35:03;;;;;;;11.93;3.47;;;;;;;12.55;91.55;98761.56;4976339;28;20623;-51
2022/08/21 04:37:30;;;;;;;6.97;3.20;;;;;;;12.59;90.88;98762.03;4969254;28;20320;-51
2022/08/21 04:39:58;;;;;;;10.27;3.90;;;;;;;12.61;91.83;98767.13;4960863;28;20575;-51
2022/08/21 04:42:24;;;;;;;8.30;3.30;;;;;;;12.65;90.47;98761.41;4968830;28;20244;-50
2022/08/21 04:44:52;;;;;;;8.13;3.60;;;;;;;12.62;90.60;98776.63;4980956;28;20230;-51
2022/08/21 04:47:19;;;;;;;6.23;3.63;;;;;;;12.63;91.29;98768.59;4970916;28;20243;-51
2022/08/21 04:49:48;;;;;;;5.87;3.20;;;;;;;12.70;91.41;98779.28;4976174;28;20256;-50
2022/08/21 04:52:19;;;;;;;6.87;3.67;;;;;;;12.69;92.42;98775.00;4969318;28;20365;-51
2022/08/21 04:54:47;;;;;;;10.13;3.70;;;;;;;12.72;91.65;98779.91;4970198;28;20222;-50
2022/08/21 04:57:17;;;;;;;5.77;3.70;;;;;;;12.72;91.64;98774.66;4977346;28;20226;-51
2022/08/21 04:59:49;;;;;;;8.53;3.53;;;;;;;12.78;92.07;98773.22;4969190;28;20237;-53
2022/08/21 05:02:16;;;;;;;12.67;3.80;;;;;;;12.84;91.55;98777.81;4975398;28;20318;-50
2022/08/21 05:04:46;;;;;;;9.90;3.37;;;;;;;12.85;91.93;98780.25;4975833;28;20723;-54
2022/08/21 05:07:17;;;;;;;6.97;3.83;;;;;;;12.86;91.54;98783.72;4974174;28;20234;-51
2022/08/21 05:09:44;;;;;;;9.83;3.87;;;;;;;12.91;91.62;98785.84;4967195;28;20292;-53
2022/08/21 05:12:11;;;;;;;9.67;3.80;;;;;;;12.93;91.66;98784.69;4965741;28;20707;-51
2022/08/21 05:14:38;;;;;;;10.17;4.07;;;;;;;12.96;91.66;98788.78;4972517;28;20715;-51
2022/08/21 05:17:05;;;;;;;8.43;3.87;;;;;;;13.03;91.64;98788.97;4973023;28;20238;-53
2022/08/21 05:19:32;;;;;;;11.03;4.93;;;;;;;13.09;90.53;98788.31;4962597;28;20342;-52
2022/08/21 05:22:24;;;;;;;10.53;3.53;;;;;;;13.13;90.89;98790.44;4966468;28;20248;-50
2022/08/21 05:24:51;;;;;;;9.07;3.77;;;;;;;13.18;90.21;98792.59;4976476;28;20325;-52
2022/08/21 05:27:18;;;;;;;8.17;3.43;;;;;;;13.20;89.90;98795.03;4974651;28;20223;-53
2022/08/21 05:29:44;;;;;;;5.37;3.50;;;;;;;13.19;90.20;98788.97;4970683;28;20568;-50
2022/08/21 05:32:13;;;;;;;11.60;3.90;;;;;;;13.27;89.86;98790.78;4976540;28;20257;-50
2022/08/21 05:34:40;;;;;;;9.50;3.83;;;;;;;13.34;89.91;98786.50;4964915;28;20251;-50
2022/08/21 05:37:06;;;;;;;9.07;3.80;;;;;;;13.34;90.26;98783.88;4973747;28;20239;-51
2022/08/21 05:39:34;;;;;;;8.33;3.53;;;;;;;13.36;90.15;98786.34;4971160;28;20230;-50
2022/08/21 05:42:01;;;;;;;8.10;3.20;;;;;;;13.40;89.58;98787.63;4964402;28;20261;-50
2022/08/21 05:44:28;;;;;;;5.90;3.40;;;;;;;13.43;89.16;98780.31;4977839;28;20742;-50
2022/08/21 05:46:55;;;;;;;7.57;3.63;;;;;;;13.47;88.93;98778.16;4975708;28;20249;-51
2022/08/21 05:49:22;;;;;;;10.60;3.97;;;;;;;13.50;89.55;98777.03;4967750;28;20285;-51
2022/08/21 05:51:49;;;;;;;5.93;3.23;;;;;;;13.56;89.58;98781.59;4974493;28;20243;-51
2022/08/21 05:54:15;;;;;;;6.30;3.60;;;;;;;13.59;89.08;98778.66;4976423;28;20241;-50
2022/08/21 05:56:44;;;;;;;7.00;3.67;;;;;;;13.62;89.45;98782.72;4962959;28;20599;-53
2022/08/21 05:59:12;;;;;;;6.10;3.10;;;;;;;13.67;89.37;98780.44;4978555;28;20238;-51
2022/08/21 06:01:40;;;;;;;8.40;3.47;;;;;;;13.71;89.08;98779.94;4968265;28;20661;-51
2022/08/21 06:04:08;;;;;;;6.13;3.80;;;;;;;13.71;88.87;98784.34;4974169;28;20766;-52
2022/08/21 06:06:35;;;;;;;6.77;3.37;;;;;;;13.76;88.61;98784.69;4972346;28;20334;-50
2022/08/21 06:09:02;;;;;;;9.30;3.63;;;;;;;13.81;88.92;98786.78;4975233;28;20234;-54
2022/08/21 06:11:29;;;;;;;7.60;3.93;;;;;;;13.89;88.99;98784.13;4966355;28;20827;-50
2022/08/21 06:13:57;;;;;;;6.83;3.33;;;;;;;13.92;88.51;98786.44;4966793;28;20230;-51
2022/08/21 06:16:24;;;;;;;9.93;4.10;;;;;;;14.01;88.02;98784.63;4964103;28;20807;-53
2022/08/21 06:18:51;;;;;;;7.00;3.40;;;;;;;14.09;87.55;98789.84;4966541;28;20222;-50
2022/08/21 06:21:18;;;;;;;11.50;3.60;;;;;;;14.17;86.94;98787.19;4962200;28;20243;-53
2022/08/21 06:23:46;;;;;;;6.73;3.60;;;;;;;14.31;86.45;98787.44;4971762;28;20236;-51
2022/08/21 06:26:14;;;;;;;8.83;3.60;;;;;;;14.41;86.06;98789.88;4978322;28;20243;-51
2022/08/21 06:28:42;;;;;;;7.73;3.60;;;;;;;14.52;85.48;98791.28;4976367;28;20578;-51
2022/08/21 06:31:16;;;;;;;7.60;3.17;;;;;;;14.61;84.88;98793.72;4966581;28;20238;-51
2022/08/21 06:33:43;;;;;;;7.97;3.70;;;;;;;14.72;84.34;98799.59;4974164;28;20307;-52
2022/08/21 06:36:10;;;;;;;10.43;3.30;;;;;;;14.85;83.75;98799.81;4972469;28;20249;-52
2022/08/21 06:38:37;;;;;;;6.43;3.00;;;;;;;14.99;82.62;98802.69;4975470;28;20432;-50
2022/08/21 06:41:05;;;;;;;7.33;3.80;;;;;;;15.18;82.03;98790.91;4982009;28;20237;-51
2022/08/21 06:43:32;;;;;;;9.03;3.37;;;;;;;15.37;81.49;98797.47;4971129;28;20269;-51
2022/08/21 06:45:59;;;;;;;5.77;3.00;;;;;;;15.58;80.11;98798.59;4969110;28;20313;-50
2022/08/21 06:48:27;;;;;;;6.17;3.40;;;;;;;15.81;79.34;98801.16;4972340;28;20226;-52
2022/08/21 06:50:53;;;;;;;7.13;3.90;;;;;;;16.00;78.30;98799.03;4975992;28;20239;-52
2022/08/21 06:53:21;;;;;;;9.80;3.70;;;;;;;16.21;77.71;98798.28;4974349;28;20299;-50
2022/08/21 06:55:49;;;;;;;9.80;3.10;;;;;;;16.41;75.16;98800.34;4980369;28;20620;-51
2022/08/21 06:58:16;;;;;;;11.57;2.90;;;;;;;16.61;74.09;98803.22;4977532;28;20714;-54
2022/08/21 07:00:46;;;;;;;8.70;3.43;;;;;;;16.78;71.58;98812.53;4978191;28;20308;-51
2022/08/21 07:03:18;;;;;;;6.83;3.20;;;;;;;16.98;71.45;98804.03;4979191;28;20238;-51
2022/08/21 07:05:47;;;;;;;6.53;3.10;;;;;;;17.13;71.92;98803.97;4973920;28;20233;-53
2022/08/21 07:08:13;;;;;;;5.67;2.87;;;;;;;17.24;71.57;98803.47;4986030;28;20224;-51
2022/08/21 07:10:40;;;;;;;8.27;3.03;;;;;;;17.34;69.91;98807.59;4964694;28;20236;-50
2022/08/21 07:13:07;;;;;;;7.37;2.67;;;;;;;17.46;69.70;98800.81;4967734;28;20242;-52
2022/08/21 07:15:34;;;;;;;8.53;3.47;;;;;;;17.61;69.80;98808.63;4971329;28;20316;-51
2022/08/21 07:18:01;;;;;;;10.73;3.23;;;;;;;17.73;69.33;98802.81;4974629;28;20706;-51
2022/08/21 07:20:29;;;;;;;6.67;2.70;;;;;;;17.88;67.86;98813.28;4970412;28;20229;-53
2022/08/21 07:22:59;;;;;;;8.40;3.33;;;;;;;17.93;67.84;98803.75;4977864;28;20242;-52
2022/08/21 07:25:26;;;;;;;6.77;2.80;;;;;;;18.17;64.46;98803.50;4967013;28;20312;-51
2022/08/21 07:27:53;;;;;;;7.67;3.30;;;;;;;18.25;64.23;98801.50;4972808;28;20240;-52
2022/08/21 07:30:20;;;;;;;7.60;2.80;;;;;;;18.36;63.93;98799.31;4975184;28;20260;-53
2022/08/21 07:32:48;;;;;;;7.23;2.80;;;;;;;18.55;63.33;98806.47;4972355;28;20702;-52
2022/08/21 07:35:15;;;;;;;5.70;2.80;;;;;;;18.69;62.12;98801.25;4970209;28;20241;-50
2022/08/21 07:37:42;;;;;;;7.23;2.90;;;;;;;18.82;62.40;98801.28;4976333;28;20320;-53
2022/08/21 07:40:11;;;;;;;6.90;3.43;;;;;;;18.91;62.57;98804.56;4967742;28;20231;-51
2022/08/21 07:42:41;;;;;;;7.50;2.60;;;;;;;18.98;62.26;98805.44;4967634;28;20234;-51
2022/08/21 07:45:09;;;;;;;6.57;2.77;;;;;;;19.01;61.66;98797.09;4971973;28;20778;-53
2022/08/21 07:47:36;;;;;;;7.87;2.80;;;;;;;19.12;60.71;98798.31;4968467;28;20233;-51
2022/08/21 07:50:03;;;;;;;6.63;2.80;;;;;;;19.03;60.79;98799.53;4968768;28;20309;-53
2022/08/21 07:52:30;;;;;;;7.27;3.00;;;;;;;19.14;60.57;98795.44;4972125;28;20324;-54
2022/08/21 07:54:57;;;;;;;7.23;3.33;;;;;;;19.23;60.62;98802.16;4969906;28;20588;-52
2022/08/21 07:57:25;;;;;;;5.87;2.63;;;;;;;19.36;59.89;98795.25;4982812;28;20233;-51
2022/08/21 07:59:52;;;;;;;6.60;2.80;;;;;;;19.35;59.98;98798.91;4967358;28;20234;-52
2022/08/21 08:02:24;;;;;;;7.20;2.50;;;;;;;19.46;59.79;98801.78;4970849;28;20261;-51
2022/08/21 08:04:51;;;;;;;10.37;3.10;;;;;;;19.51;59.14;98800.34;4972876;28;20236;-54
2022/08/21 08:07:18;;;;;;;7.07;2.80;;;;;;;19.50;59.39;98801.38;4968552;28;20238;-54
2022/08/21 08:09:44;;;;;;;7.03;2.53;;;;;;;19.57;59.35;98795.03;4976939;28;20235;-53
2022/08/21 08:12:31;;;;;;;6.40;3.00;;;;;;;19.68;59.13;98788.28;4959538;28;20246;-52
2022/08/21 08:14:58;;;;;;;9.83;3.10;;;;;;;19.80;58.61;98792.97;4970672;28;20290;-51
2022/08/21 08:17:25;;;;;;;9.47;2.77;;;;;;;19.81;58.13;98787.47;4972846;28;20741;-51
2022/08/21 08:20:13;;;;;;;6.57;2.50;;;;;;;19.88;57.60;98782.97;4975640;28;20364;-51
2022/08/21 08:22:41;;;;;;;5.73;2.27;;;;;;;19.99;58.20;98784.19;4980372;28;20263;-51
2022/08/21 08:25:09;;;;;;;7.37;3.07;;;;;;;20.04;58.32;98779.06;4974371;28;20239;-53
2022/08/21 08:27:37;;;;;;;7.97;3.07;;;;;;;20.15;58.14;98779.44;4973101;28;20232;-51
2022/08/21 08:30:06;;;;;;;7.93;3.17;;;;;;;20.23;58.02;98778.41;4974515;28;20331;-51
2022/08/21 08:32:33;;;;;;;7.50;3.03;;;;;;;20.23;58.51;98781.88;4974121;28;20365;-51
2022/08/21 08:35:00;;;;;;;8.67;2.90;;;;;;;20.34;58.06;98788.34;4968097;28;20232;-51
2022/08/21 08:37:27;;;;;;;7.43;3.10;;;;;;;20.26;58.62;98780.63;4975508;28;20704;-51
2022/08/21 08:39:53;;;;;;;9.23;2.87;;;;;;;20.34;58.81;98773.25;4977489;28;20283;-53
2022/08/21 08:42:28;;;;;;;6.33;3.03;;;;;;;20.47;57.97;98776.88;4973876;28;20726;-52
2022/08/21 08:45:01;;;;;;;5.87;2.57;;;;;;;20.50;57.43;98779.91;4974077;28;20317;-52
2022/08/21 08:47:30;;;;;;;7.17;2.83;;;;;;;20.49;57.54;98778.28;4968223;28;20316;-54
2022/08/21 08:50:03;;;;;;;5.80;3.00;;;;;;;20.47;57.16;98777.69;4975514;28;20237;-53
2022/08/21 08:52:31;;;;;;;8.53;3.20;;;;;;;20.57;56.41;98779.06;4973241;28;20292;-51
2022/08/21 08:55:04;;;;;;;6.73;2.90;;;;;;;20.63;55.42;98780.88;4969613;28;20317;-54
2022/08/21 08:57:33;;;;;;;9.60;3.43;;;;;;;20.68;55.27;98773.09;4976465;28;20239;-52
2022/08/21 09:00:04;;;;;;;7.93;3.00;;;;;;;20.75;55.16;98768.56;4972825;28;20230;-51
2022/08/21 09:02:33;;;;;;;6.47;2.63;;;;;;;20.90;54.32;98767.47;4971183;28;20242;-54
2022/08/21 09:05:01;;;;;;;6.30;2.60;;;;;;;20.94;52.73;98763.38;4967905;28;20232;-51
2022/08/21 09:07:38;;;;;;;6.00;2.80;;;;;;;20.98;53.66;98763.72;4958746;28;20651;-53
2022/08/21 09:10:12;;;;;;;7.63;2.83;;;;;;;21.04;53.14;98753.09;4972413;28;20940;-51
2022/08/21 09:12:49;;;;;;;6.43;3.03;;;;;;;21.01;53.40;98753.50;4963548;28;20239;-54
2022/08/21 09:15:24;;;;;;;9.70;3.57;;;;;;;21.10;52.12;98756.69;4972942;28;20226;-53
2022/08/21 09:18:21;;;;;;;8.03;3.20;;;;;;;21.19;50.53;98746.63;4969782;28;20221;-51
2022/08/21 09:20:58;;;;;;;7.40;2.67;;;;;;;21.21;51.96;98742.72;4975924;28;20285;-51
2022/08/21 09:23:35;;;;;;;5.93;3.30;;;;;;;21.22;51.96;98733.72;4974604;28;20239;-52
2022/08/21 09:26:08;;;;;;;8.27;2.90;;;;;;;21.34;51.69;98733.03;4976347;28;20270;-51
2022/08/21 09:28:36;;;;;;;6.37;2.77;;;;;;;21.51;52.37;98735.91;4978155;28;20762;-51
2022/08/21 09:31:08;;;;;;;8.33;2.77;;;;;;;21.50;51.82;98721.00;4971304;28;20247;-51
2022/08/21 09:33:35;;;;;;;5.83;2.93;;;;;;;21.57;51.67;98731.59;4977148;28;20229;-54
2022/08/21 09:36:03;;;;;;;5.70;2.83;;;;;;;21.62;50.11;98729.91;4980637;28;20241;-51
2022/08/21 09:38:32;;;;;;;8.10;2.90;;;;;;;21.60;50.94;98718.66;4974534;28;20234;-54
2022/08/21 09:41:03;;;;;;;8.40;3.20;;;;;;;21.74;49.57;98721.19;4974018;28;20232;-51
2022/08/21 09:43:30;;;;;;;6.90;3.07;;;;;;;21.83;49.25;98731.31;4978913;28;20273;-51
2022/08/21 09:46:10;;;;;;;6.83;2.97;;;;;;;21.99;49.94;98720.31;4973963;28;20261;-51
2022/08/21 09:48:46;;;;;;;6.50;2.83;;;;;;;22.02;49.36;98717.22;4966372;28;20240;-52
2022/08/21 09:51:16;;;;;;;6.57;2.63;;;;;;;22.18;48.92;98724.56;4981291;28;20242;-52
2022/08/21 09:53:47;;;;;;;8.20;2.93;;;;;;;22.16;48.87;98716.00;4973474;28;20234;-51
2022/08/21 09:59:18;;;;;;;7.47;3.03;;;;;;;22.52;47.82;98730.25;4960724;28;20231;-53
2022/08/21 10:01:50;;;;;;;8.67;2.90;;;;;;;22.59;47.53;98724.03;4973882;28;20239;-52
2022/08/21 10:04:23;;;;;;;7.50;2.90;;;;;;;22.62;47.18;98724.41;4974266;28;20249;-51
2022/08/21 10:06:50;;;;;;;8.13;3.37;;;;;;;22.61;47.09;98732.59;4974376;28;20770;-51
2022/08/21 10:09:22;;;;;;;7.47;2.90;;;;;;;22.74;46.78;98721.75;4981070;28;20240;-51
2022/08/21 10:12:07;;;;;;;9.57;3.10;;;;;;;22.87;46.69;98709.28;4978616;28;20237;-51
2022/08/21 10:14:45;;;;;;;5.33;2.40;;;;;;;22.92;47.16;98722.72;4978333;28;20241;-53
2022/08/21 10:17:18;;;;;;;9.10;2.70;;;;;;;22.90;46.43;98717.63;4977635;28;20269;-52
2022/08/21 10:19:54;;;;;;;5.00;2.63;;;;;;;23.00;46.80;98712.53;4973599;28;20645;-52
2022/08/21 10:22:33;;;;;;;10.07;3.30;;;;;;;23.05;45.83;98713.69;4973462;28;20241;-51
2022/08/21 10:25:09;;;;;;;8.37;2.63;;;;;;;23.25;46.02;98710.75;4979479;28;20238;-53
2022/08/21 10:27:48;;;;;;;6.73;2.70;;;;;;;23.27;45.25;98708.66;4971087;28;20314;-51
2022/08/21 10:30:20;;;;;;;6.33;2.60;;;;;;;23.40;43.61;98708.41;4978742;28;20234;-52
2022/08/21 10:33:17;;;;;;;7.83;2.40;;;;;;;23.52;42.70;98716.41;4972935;28;20240;-51
2022/08/21 10:35:51;;;;;;;4.20;2.43;;;;;;;23.48;41.30;98703.75;4972167;28;20695;-51
2022/08/21 10:38:54;;;;;;;7.37;2.53;;;;;;;23.45;41.70;98697.06;4983292;28;20230;-52
2022/08/21 10:41:33;;;;;;;6.80;2.30;;;;;;;23.57;42.21;98700.53;4981601;28;20260;-53
2022/08/21 10:44:09;;;;;;;9.07;2.10;;;;;;;23.69;42.08;98711.13;4975316;28;20314;-52
2022/08/21 10:46:47;;;;;;;6.03;2.20;;;;;;;23.77;41.58;98703.81;4971321;28;20723;-51
2022/08/21 10:49:23;;;;;;;5.93;2.30;;;;;;;23.83;40.67;98701.03;4962301;28;20694;-53
2022/08/21 10:52:02;;;;;;;4.93;1.77;;;;;;;23.85;40.51;98688.25;4974659;28;20750;-52
2022/08/21 10:54:40;;;;;;;7.60;2.43;;;;;;;23.89;40.13;98683.28;4965671;28;20230;-50
2022/08/21 10:57:16;;;;;;;5.90;2.10;;;;;;;24.06;40.50;98691.38;4974258;28;20663;-52
2022/08/21 11:00:06;;;;;;;6.37;1.70;;;;;;;24.11;40.83;98693.34;4980060;28;20288;-52
2022/08/21 11:02:39;;;;;;;6.57;2.10;;;;;;;24.25;41.56;98688.50;4965477;28;20566;-52
2022/08/21 11:05:13;;;;;;;11.80;2.30;;;;;;;24.27;41.17;98689.91;4974942;28;20231;-51
2022/08/21 11:07:47;;;;;;;8.70;2.57;;;;;;;24.37;41.83;98691.13;4973477;28;20255;-51
2022/08/21 11:10:21;;;;;;;5.90;2.60;;;;;;;24.45;40.81;98678.19;4982699;28;20351;-51
2022/08/21 11:12:54;;;;;;;7.27;2.80;;;;;;;24.69;41.05;98680.72;4981283;28;20238;-51
2022/08/21 11:15:37;;;;;;;5.23;2.40;;;;;;;24.67;40.52;98674.00;4965868;28;20238;-53
2022/08/21 11:18:17;;;;;;;7.83;2.50;;;;;;;24.51;40.39;98672.94;4967483;28;20245;-54
2022/08/21 11:20:52;;;;;;;11.33;3.03;;;;;;;24.55;40.72;98669.53;4961230;28;20233;-52
2022/08/21 11:23:24;;;;;;;11.37;2.93;;;;;;;24.66;40.51;98672.38;4983389;28;20256;-54
2022/08/21 11:25:56;;;;;;;4.73;2.53;;;;;;;24.72;40.91;98674.09;4975662;28;20231;-52
2022/08/21 11:28:27;;;;;;;6.87;2.50;;;;;;;24.64;40.02;98664.63;4975200;28;20220;-51
2022/08/21 11:31:09;;;;;;;4.20;1.97;;;;;;;24.76;40.19;98662.72;4979784;28;20243;-51
2022/08/21 11:33:53;;;;;;;5.60;2.10;;;;;;;24.91;40.01;98662.13;4971363;28;20290;-51
2022/08/21 11:36:30;;;;;;;8.03;2.50;;;;;;;24.95;40.22;98656.31;4966724;28;20640;-52
2022/08/21 11:39:03;;;;;;;5.67;2.40;;;;;;;24.81;39.62;98661.19;4975818;28;20238;-51
2022/08/21 11:41:36;;;;;;;6.20;2.33;;;;;;;25.06;40.13;98658.09;4974527;28;20248;-53
2022/08/21 11:44:26;;;;;;;6.87;2.63;;;;;;;25.02;40.09;98662.28;4977792;28;20239;-51
2022/08/21 11:47:04;;;;;;;5.77;2.67;;;;;;;24.79;39.94;98656.06;4975591;28;20624;-54